Time,TemperatureF,DewpointF,PressureIn,WindDirection,WindDirectionDegrees,WindSpeedMPH,WindSpeedGustMPH,Humidity,HourlyPrecipIn,Conditions,Clouds,dailyrainin,SoftwareType,DateUTC
2013-04-05 17:20:00,57.7,27.2,29.58,WSW,238,3.0,7.0,31,0.00,,,0.00,Wunderground v.1.15,2013-04-05 21:20:00,
2013-04-05 17:30:00,57.7,27.2,29.59,West,263,3.0,3.0,31,0.00,,,0.00,Wunderground v.1.15,2013-04-05 21:30:00,
2013-04-05 17:40:00,57.4,29.2,29.59,West,261,2.0,7.0,34,0.00,,,0.00,Wunderground v.1.15,2013-04-05 21:40:00,
2013-04-05 17:50:00,56.7,29.3,29.59,SSW,199,2.0,2.0,35,0.00,,,0.00,Wunderground v.1.15,2013-04-05 21:50:00,
2013-04-05 18:00:00,57.0,27.4,29.61,WSW,250,2.0,5.0,32,0.00,,,0.00,Wunderground v.1.15,2013-04-05 22:00:00,
2013-04-05 18:10:00,56.8,28.0,29.61,NW,308,2.0,2.0,33,0.00,,,0.00,Wunderground v.1.15,2013-04-05 22:10:00,
2013-04-05 18:20:00,56.5,28.4,29.62,WNW,288,2.0,6.0,34,0.00,,,0.00,Wunderground v.1.15,2013-04-05 22:20:00,
2013-04-05 18:30:00,55.0,28.5,29.63,SW,226,2.0,2.0,36,0.00,,,0.00,Wunderground v.1.15,2013-04-05 22:30:00,
2013-04-05 18:40:00,53.1,31.2,29.63,SW,223,2.0,8.0,43,0.00,,,0.00,Wunderground v.1.15,2013-04-05 22:40:00,
2013-04-05 18:50:00,52.2,31.5,29.64,West,260,1.0,6.0,45,0.00,,,0.00,Wunderground v.1.15,2013-04-05 22:50:00,
2013-04-05 19:00:00,51.6,32.5,29.64,WNW,294,2.0,2.0,48,0.00,,,0.00,Wunderground v.1.15,2013-04-05 23:00:00,
2013-04-05 19:10:00,50.4,33.4,29.64,WSW,257,1.0,6.0,52,0.00,,,0.00,Wunderground v.1.15,2013-04-05 23:10:00,
2013-04-05 19:20:00,49.4,34.3,29.64,WNW,300,2.0,2.0,56,0.00,,,0.00,Wunderground v.1.15,2013-04-05 23:20:00,
2013-04-05 19:30:00,48.7,33.2,29.64,NNE,32,2.0,5.0,55,0.00,,,0.00,Wunderground v.1.15,2013-04-05 23:30:00,
2013-04-05 19:40:00,48.8,33.3,29.65,SSE,148,3.0,3.0,55,0.00,,,0.00,Wunderground v.1.15,2013-04-05 23:40:00,
2013-04-05 19:50:00,47.7,34.9,29.67,NNE,32,2.0,9.0,61,0.00,,,0.00,Wunderground v.1.15,2013-04-05 23:50:00,
2013-04-05 20:00:00,47.4,33.8,29.67,SSW,210,2.0,2.0,59,0.00,,,0.00,Wunderground v.1.15,2013-04-06 00:00:00,
2013-04-05 20:10:00,47.1,34.3,29.68,West,272,2.0,2.0,61,0.00,,,0.00,Wunderground v.1.15,2013-04-06 00:10:00,
2013-04-05 20:20:00,46.9,32.9,29.69,NNW,342,3.0,7.0,58,0.00,,,0.00,Wunderground v.1.15,2013-04-06 00:20:00,
2013-04-05 20:30:00,46.4,33.7,29.69,West,272,3.0,3.0,61,0.00,,,0.00,Wunderground v.1.15,2013-04-06 00:30:00,
2013-04-05 20:40:00,46.3,31.9,29.70,SSE,164,3.0,9.0,57,0.00,,,0.00,Wunderground v.1.15,2013-04-06 00:40:00,
2013-04-05 20:50:00,45.7,33.4,29.73,WNW,287,2.0,9.0,62,0.00,,,0.00,Wunderground v.1.15,2013-04-06 00:50:00,
2013-04-05 21:00:00,45.7,31.3,29.73,West,276,3.0,9.0,57,0.00,,,0.00,Wunderground v.1.15,2013-04-06 01:00:00,
2013-04-05 21:10:00,45.8,31.0,29.73,South,179,4.0,4.0,56,0.00,,,0.00,Wunderground v.1.15,2013-04-06 01:10:00,
2013-04-05 21:19:00,45.5,31.1,29.75,NNW,348,4.0,4.0,57,0.00,,,0.00,Wunderground v.1.15,2013-04-06 01:19:00,
2013-04-05 21:29:00,45.1,30.8,29.75,East,98,4.0,15.0,57,0.00,,,0.00,Wunderground v.1.15,2013-04-06 01:29:00,
2013-04-05 21:39:00,44.8,30.0,29.75,SE,141,4.0,4.0,56,0.00,,,0.00,Wunderground v.1.15,2013-04-06 01:39:00,
2013-04-05 21:49:00,44.4,30.5,29.76,NNE,18,4.0,4.0,58,0.00,,,0.00,Wunderground v.1.15,2013-04-06 01:49:00,
2013-04-05 21:59:00,43.7,30.3,29.76,ESE,103,3.0,3.0,59,0.00,,,0.00,Wunderground v.1.15,2013-04-06 01:59:00,
2013-04-05 22:09:00,43.7,30.3,29.77,South,176,4.0,4.0,59,0.00,,,0.00,Wunderground v.1.15,2013-04-06 02:09:00,
2013-04-05 22:19:00,43.3,30.7,29.78,WNW,285,4.0,4.0,61,0.00,,,0.00,Wunderground v.1.15,2013-04-06 02:19:00,
2013-04-05 22:29:00,43.2,29.8,29.78,SW,232,6.0,6.0,59,0.00,,,0.00,Wunderground v.1.15,2013-04-06 02:29:00,
2013-04-05 22:39:00,43.2,29.0,29.78,SW,226,5.0,5.0,57,0.00,,,0.00,Wunderground v.1.15,2013-04-06 02:39:00,
2013-04-05 22:49:00,42.9,29.1,29.79,NW,317,4.0,14.0,58,0.00,,,0.00,Wunderground v.1.15,2013-04-06 02:49:00,
2013-04-05 22:59:00,42.7,28.9,29.79,NNW,331,4.0,13.0,58,0.00,,,0.00,Wunderground v.1.15,2013-04-06 02:59:00,
2013-04-05 23:19:00,42.3,29.4,29.81,NNE,15,3.0,11.0,60,0.00,,,0.00,Wunderground v.1.15,2013-04-06 03:19:00,
2013-04-05 23:29:00,42.0,29.1,29.81,ENE,73,4.0,15.0,60,0.00,,,0.00,Wunderground v.1.15,2013-04-06 03:29:00,
2013-04-05 23:39:00,41.9,29.4,29.81,WNW,298,4.0,10.0,61,0.00,,,0.00,Wunderground v.1.15,2013-04-06 03:39:00,
2013-04-05 23:49:00,41.9,28.2,29.81,ENE,69,5.0,14.0,58,0.00,,,0.00,Wunderground v.1.15,2013-04-06 03:49:00,
2013-04-05 23:59:00,41.8,27.7,29.81,NNE,20,5.0,15.0,57,0.00,,,0.00,Wunderground v.1.15,2013-04-06 03:59:00,